createdAt,value
2022-10-04T00:03:44.079Z,64.36
2022-10-04T00:08:51.800Z,64.40
2022-10-04T00:14:00.294Z,64.55
2022-10-04T00:19:25.722Z,64.87
2022-10-04T00:24:30.814Z,64.14
2022-10-04T00:29:39.199Z,64.10
2022-10-04T00:34:50.460Z,64.21
2022-10-04T00:40:05.846Z,64.60
2022-10-04T00:45:20.791Z,64.87
2022-10-04T00:50:32.010Z,64.96
2022-10-04T00:55:40.934Z,64.50
2022-10-04T01:00:49.869Z,64.59
2022-10-04T01:06:00.430Z,64.40
2022-10-04T01:11:11.362Z,64.43
2022-10-04T01:16:20.506Z,63.91
2022-10-04T01:21:30.545Z,64.03
2022-10-04T01:26:46.777Z,63.59
2022-10-04T01:31:53.070Z,63.56
2022-10-04T01:36:59.163Z,63.83
2022-10-04T01:42:10.875Z,63.90
2022-10-04T01:47:18.290Z,63.80
2022-10-04T01:52:25.674Z,64.24
2022-10-04T01:57:37.655Z,64.18
2022-10-04T02:02:47.418Z,63.85
2022-10-04T02:07:52.482Z,64.77
2022-10-04T02:12:58.220Z,65.22
2022-10-04T02:18:02.838Z,65.69
2022-10-04T02:23:06.461Z,65.48
2022-10-04T02:28:14.917Z,65.36
2022-10-04T02:33:18.333Z,65.29
2022-10-04T02:38:26.180Z,64.82
2022-10-04T02:43:36.919Z,65.23
2022-10-04T02:48:48.766Z,65.91
2022-10-04T02:54:03.189Z,66.50
2022-10-04T02:59:09.758Z,66.58
2022-10-04T03:04:16.029Z,66.75
2022-10-04T03:09:26.139Z,67.30
2022-10-04T03:14:34.705Z,66.77
2022-10-04T03:19:39.541Z,67.39
2022-10-04T03:24:47.121Z,67.66
2022-10-04T03:29:58.227Z,67.64
2022-10-04T03:35:05.859Z,67.81
2022-10-04T03:40:12.355Z,66.79
2022-10-04T03:45:21.145Z,66.75
2022-10-04T03:50:27.734Z,66.49
2022-10-04T03:55:35.862Z,67.55
2022-10-04T04:00:46.789Z,67.42
2022-10-04T04:05:54.868Z,67.41
2022-10-04T04:11:01.473Z,67.58
2022-10-04T04:16:08.125Z,67.06
2022-10-04T04:21:18.860Z,67.09
2022-10-04T04:26:29.099Z,66.38
2022-10-04T04:31:38.836Z,66.37
2022-10-04T04:36:43.837Z,66.15
2022-10-04T04:41:50.597Z,65.58
2022-10-04T04:47:00.560Z,64.48
2022-10-04T04:52:05.480Z,64.64
2022-10-04T04:57:09.664Z,62.45
2022-10-04T05:02:35.224Z,55.20
2022-10-04T05:07:39.490Z,58.30
2022-10-04T05:12:42.858Z,59.44
2022-10-04T05:17:48.677Z,59.78
2022-10-04T05:22:53.075Z,61.51
2022-10-04T05:27:58.148Z,61.41
2022-10-04T05:33:06.739Z,61.90
2022-10-04T05:38:21.534Z,61.50
2022-10-04T05:43:34.471Z,60.93
2022-10-04T05:48:43.362Z,60.28
2022-10-04T05:53:47.181Z,59.88
2022-10-04T05:59:09.351Z,59.60
2022-10-04T06:04:39.087Z,58.02
2022-10-04T06:10:11.206Z,58.94
2022-10-04T06:15:48.769Z,59.17
2022-10-04T06:21:22.054Z,59.39
2022-10-04T06:26:30.045Z,59.27
2022-10-04T06:32:05.333Z,59.47
2022-10-04T06:37:28.645Z,59.68
2022-10-04T06:43:07.361Z,59.16
2022-10-04T06:48:36.755Z,59.75
2022-10-04T06:53:55.899Z,59.35
2022-10-04T06:59:25.342Z,59.90
2022-10-04T07:05:06.417Z,59.22
2022-10-04T07:10:18.405Z,57.82
2022-10-04T07:15:27.194Z,57.30
2022-10-04T07:20:35.750Z,56.89
2022-10-04T07:25:47.619Z,55.79
2022-10-04T07:30:59.243Z,56.12
2022-10-04T07:36:09.630Z,55.96
2022-10-04T07:41:25.126Z,56.45
2022-10-04T07:46:45.355Z,55.82
2022-10-04T07:52:14.409Z,56.30
2022-10-04T07:57:28.930Z,55.27
2022-10-04T08:02:44.680Z,56.29
2022-10-04T08:08:02.965Z,53.38
2022-10-04T08:13:19.632Z,46.62
2022-10-04T08:18:39.966Z,48.09
2022-10-04T08:24:06.630Z,48.07
2022-10-04T08:29:44.812Z,48.49
2022-10-04T08:35:14.028Z,49.05
2022-10-04T08:40:46.430Z,49.33
2022-10-04T08:46:25.424Z,50.50
2022-10-04T08:52:26.056Z,50.61
2022-10-04T08:58:06.772Z,51.44
2022-10-04T09:03:46.727Z,50.48
2022-10-04T09:09:40.349Z,51.20
2022-10-04T09:15:33.033Z,50.36
2022-10-04T09:20:55.064Z,49.27
2022-10-04T09:26:12.047Z,50.09
2022-10-04T09:31:43.360Z,51.86
2022-10-04T09:37:13.804Z,50.77
2022-10-04T09:42:43.823Z,50.74
2022-10-04T09:48:02.423Z,50.32
2022-10-04T09:53:21.766Z,51.30
2022-10-04T09:58:43.481Z,51.67
2022-10-04T10:04:11.803Z,51.62
2022-10-04T10:09:48.547Z,54.41
2022-10-04T10:15:11.740Z,56.32
2022-10-04T10:20:45.167Z,57.27
2022-10-04T10:26:03.177Z,60.77
2022-10-04T10:31:32.227Z,62.57
2022-10-04T10:37:05.824Z,64.28
2022-10-04T10:42:27.425Z,66.51
2022-10-04T10:47:44.632Z,66.53
2022-10-04T10:53:30.399Z,65.55
2022-10-04T10:59:06.838Z,66.48
2022-10-04T11:04:45.141Z,66.14
2022-10-04T11:10:16.099Z,66.51
2022-10-04T11:15:52.519Z,67.99
2022-10-04T11:21:29.455Z,68.38
2022-10-04T11:27:02.795Z,66.38
2022-10-04T11:32:52.055Z,66.43
2022-10-04T11:38:07.923Z,66.49
2022-10-04T11:43:32.029Z,65.96
2022-10-04T11:48:48.410Z,66.41
2022-10-04T11:54:28.736Z,67.62
2022-10-04T11:59:53.037Z,68.08
2022-10-04T12:05:31.187Z,67.60
2022-10-04T12:10:39.734Z,67.27
2022-10-04T12:15:58.373Z,67.09
2022-10-04T12:21:29.871Z,67.15
2022-10-04T12:27:01.308Z,66.83
2022-10-04T12:32:11.466Z,66.65
2022-10-04T12:37:28.319Z,67.01
2022-10-04T12:42:45.927Z,66.29
2022-10-04T12:48:06.337Z,66.13
2022-10-04T12:53:20.231Z,65.93
2022-10-04T12:58:31.064Z,65.21
2022-10-04T13:04:00.532Z,65.31
2022-10-04T13:09:17.705Z,65.31
2022-10-04T13:14:49.353Z,66.17
2022-10-04T13:20:04.963Z,65.44
2022-10-04T13:25:47.778Z,65.82
2022-10-04T13:31:02.212Z,65.79
2022-10-04T13:36:11.697Z,66.07
2022-10-04T13:41:28.406Z,65.57
2022-10-04T13:46:44.890Z,65.88
2022-10-04T13:52:25.079Z,65.78
2022-10-04T13:57:39.650Z,66.20
2022-10-04T14:03:16.877Z,66.67
2022-10-04T14:08:58.670Z,66.26
2022-10-04T14:14:36.931Z,67.04
2022-10-04T14:20:19.872Z,67.04
2022-10-04T14:25:59.816Z,68.09
2022-10-04T14:31:38.810Z,67.52
2022-10-04T14:37:11.601Z,67.71
2022-10-04T14:42:48.353Z,68.12
2022-10-04T14:48:30.432Z,67.41
2022-10-04T14:53:41.395Z,67.63
2022-10-04T14:59:01.211Z,67.22
2022-10-04T15:04:22.609Z,67.79
2022-10-04T15:09:52.642Z,67.59
2022-10-04T15:15:37.406Z,67.82
2022-10-04T15:20:56.254Z,67.88
2022-10-04T15:26:07.527Z,67.50
2022-10-04T15:31:20.922Z,67.36
2022-10-04T15:36:48.696Z,67.12
2022-10-04T15:41:57.750Z,67.14
2022-10-04T15:47:17.373Z,67.14
2022-10-04T15:52:46.270Z,66.51
2022-10-04T15:58:17.516Z,66.49
2022-10-04T16:03:33.608Z,66.69
2022-10-04T16:08:56.581Z,66.58
2022-10-04T16:14:44.383Z,66.16
2022-10-04T16:20:06.844Z,66.62
2022-10-04T16:25:40.772Z,66.67
2022-10-04T16:30:51.008Z,66.54
2022-10-04T16:36:11.804Z,66.83
2022-10-04T16:41:34.840Z,66.65
2022-10-04T16:46:47.346Z,66.59
2022-10-04T16:52:16.520Z,67.23
2022-10-04T16:57:25.895Z,66.52
2022-10-04T17:03:08.161Z,66.61
2022-10-04T17:08:28.837Z,66.59
2022-10-04T17:13:51.739Z,66.51
2022-10-04T17:19:20.702Z,66.87
2022-10-04T17:24:36.335Z,66.68
2022-10-04T17:29:58.778Z,66.55
2022-10-04T17:35:25.445Z,66.68
2022-10-04T17:40:43.407Z,66.79
2022-10-04T17:46:16.289Z,66.79
2022-10-04T17:51:57.900Z,66.21
2022-10-04T17:57:27.457Z,65.96
2022-10-04T18:03:01.355Z,65.74
2022-10-04T18:08:14.879Z,65.93
2022-10-04T18:13:32.231Z,65.92
2022-10-04T18:18:42.388Z,65.22
2022-10-04T18:23:55.254Z,65.23
2022-10-04T18:29:02.170Z,65.29
2022-10-04T18:34:30.203Z,65.77
2022-10-04T18:39:50.558Z,65.42
2022-10-04T18:45:00.279Z,65.88
2022-10-04T18:50:17.246Z,66.34
2022-10-04T18:55:32.881Z,66.48
2022-10-04T19:01:01.352Z,66.70
2022-10-04T19:06:17.644Z,66.99
2022-10-04T19:11:26.555Z,66.68
2022-10-04T19:16:43.195Z,66.53
2022-10-04T19:21:56.876Z,66.95
2022-10-04T19:27:05.824Z,67.04
2022-10-04T19:32:15.299Z,67.62
2022-10-04T19:37:32.071Z,67.92
2022-10-04T19:42:46.944Z,67.69
2022-10-04T19:47:53.090Z,67.32
2022-10-04T19:53:01.064Z,67.22
2022-10-04T19:58:22.993Z,67.46
2022-10-04T20:03:27.068Z,67.05
2022-10-04T20:09:00.896Z,67.04
2022-10-04T20:14:54.680Z,67.05
2022-10-04T20:19:59.794Z,67.37
2022-10-04T20:25:05.041Z,67.34
2022-10-04T20:30:14.610Z,66.81
2022-10-04T20:36:10.213Z,67.71
2022-10-04T20:42:22.685Z,67.75
2022-10-04T20:47:40.097Z,68.42
2022-10-04T20:52:48.610Z,68.17
2022-10-04T20:57:54.188Z,67.94
2022-10-04T21:03:25.274Z,68.22
2022-10-04T21:08:30.447Z,68.33
2022-10-04T21:13:54.998Z,68.73
2022-10-04T21:19:46.117Z,68.42
2022-10-04T21:24:56.100Z,68.88
2022-10-04T21:30:03.011Z,68.51
2022-10-04T21:35:09.532Z,68.21
2022-10-04T21:40:15.586Z,68.11
2022-10-04T21:45:21.006Z,67.92
2022-10-04T21:50:25.056Z,68.32
2022-10-04T21:55:29.127Z,68.16
2022-10-04T22:00:35.035Z,68.34
2022-10-04T22:05:39.066Z,68.14
2022-10-04T22:10:44.251Z,67.79
2022-10-04T22:15:49.646Z,68.64
2022-10-04T22:20:54.058Z,68.53
2022-10-04T22:25:58.173Z,68.75
2022-10-04T22:31:03.535Z,68.42
2022-10-04T22:36:15.373Z,68.70
2022-10-04T22:41:21.105Z,68.59
2022-10-04T22:46:30.186Z,68.44
2022-10-04T22:51:34.455Z,69.08
2022-10-04T22:56:38.534Z,69.13
2022-10-04T23:01:44.585Z,68.34
2022-10-04T23:06:48.950Z,69.42
2022-10-04T23:11:53.234Z,69.43
2022-10-04T23:16:58.656Z,69.55
2022-10-04T23:22:02.696Z,69.22
2022-10-04T23:27:17.750Z,69.93
2022-10-04T23:32:22.157Z,70.02
2022-10-04T23:37:28.602Z,69.31
2022-10-04T23:42:36.891Z,69.30
2022-10-04T23:47:42.330Z,68.77
2022-10-04T23:52:46.657Z,69.27
2022-10-04T23:57:51.267Z,69.16
